Lynradar: storm image Ingen tordenbyger registrert..



Vårt webkamera mer informasjon My webcam


Kamera på Foreneset mer informasjon webcam on foreneset


Lynradar mer informasjon blitzortung!


varsel for Snø/Is  rain snow radar


Besøk vår andre værside:

Alternativ webside

iphone versjon

Nettbrett versjon

Foreneset
verstasjon



Snø/Is Fra: 22-03-2019 00:00 til: 23:59 varsel for: Snø/Is Level: Gul info button

Select another period ( hide this area )

enheter Periode Custom range Directly to
Metric Engelsk Begge
Daglig Weekly Månedlig Årlig
use both date-selectors for a custom range
previous Dag
With this date

WeatherUnderground graphs for this period ( click here )


Daglig sammendrag for Fredag 22 Mars 2019
Tid Temp. ( °C ) Dew pt. ( °C ) Vind ( km/h ) fra Vindkast ( km/h ) Trykk ( hPa ) Humid.( % ) Rainrate ( cm ) Sol ( W/m2 )
Max8,6 6,8 38,3 SSØ ( 1118/2558 ) 52,5 1030,3 99 0,30 248
Snitt5,3 2,0 15,3 SSØ #63/167 20,9 1025,7 81 0,60 103 #87/167
Min-0,2 -1,6 -   0,0 1019,9 53 -  
Daglig Tabular details for Fredag 22 Mars 2019
Tid Temp. ( °C ) Dew pt. ( °C ) Vind ( km/h ) fra Vindkast ( km/h ) Trykk ( hPa ) Humid.( % ) Rainrate ( cm ) Sol ( W/m2 )
00:04 0,3 0,0   Stille   1030,3 98 - -
00:09 1,2 1,0 1,3 VNV 3,7 1030,2 99 - -
00:14 1,4 1,2   Stille   1030,3 99 - -
00:19 1,4 1,3   Stille   1030,3 99 - -
00:24 1,0 0,8 3,9 VNV 5,6 1030,3 99 - -
00:29 1,3 1,2 3,4 VNV 3,7 1029,9 99 - -
00:34 1,6 1,4 4,2 NNØ 5,6 1029,6 99 - -
00:39 -0,2 -0,4 3,7 5,6 1029,6 98 - -
00:44 0,7 0,6 3,7 Øst 5,6 1029,6 99 - -
00:49 1,4 1,2 5,1 ØSØ 9,3 1029,7 99 - -
00:54 1,5 1,3 5,8 ØSØ 7,4 1029,8 99 - -
00:59 1,9 1,7 1,9 ØSØ 3,7 1029,5 99 - -
01:04 1,4 1,2 4,7 ØSØ 5,6 1029,4 99 - -
01:09 1,8 1,6 3,7 ØSØ 5,6 1029,1 99 - -
01:14 1,9 1,8 5,0 ØSØ 8,4 1028,9 99 - -
01:19 1,9 1,7 0,8 ØSØ 1,9 1028,8 99 - -
01:24 1,3 1,1   Stille   1028,7 99 - -
01:29 1,7 1,5   Stille 5,6 1028,7 99 - -
01:34 1,7 1,6 2,9 ØSØ 5,6 1028,7 99 - -
01:39 2,1 1,9 6,0 ØSØ 7,4 1028,7 99 - -
01:44 1,6 1,4 5,1 7,4 1028,5 99 - -
01:49 1,5 1,3 5,8 7,4 1028,3 99 - -
01:54 1,4 1,2 6,8 9,3 1028,3 99 - -
01:59 1,8 1,6 6,9 7,4 1028,1 99 - -
02:04 1,0 0,8 7,7 SSØ 9,3 1028,1 99 - -
02:09 0,8 0,7 8,8 Sør 10,1 1028,2 99 - -
02:14 1,1 0,9 5,6 Sør 8,4 1028,2 99 - -
02:19 1,3 1,1 9,8 SSV 11,1 1028,5 99 - -
02:24 1,2 1,0 7,7 Sør 9,3 1028,3 99 - -
02:29 1,7 1,5 7,1 Sør 8,4 1028,4 99 - -
02:34 1,6 1,4 6,0 Sør 9,3 1028,4 99 - -
02:39 1,4 1,2 6,8 Sør 9,3 1028,5 99 - -
02:44 1,5 1,3 8,2 Sør 9,3 1028,6 99 - -
02:49 1,3 1,1 6,4 Sør 7,4 1028,3 99 - -
02:54 1,5 1,3 7,6 Sør 9,3 1028,3 99 - -
02:59 1,9 1,7 6,4 Sør 9,3 1028,0 99 - -
03:04 2,2 2,1 6,6 SSØ 9,3 1027,9 99 - -
03:09 2,3 2,2 3,1 SSØ 7,4 1027,8 99 - -
03:14 2,5 2,3 5,0 SSØ 9,3 1027,9 99 - -
03:19 2,4 2,2 6,4 SSØ 9,3 1027,9 99 - -
03:24 2,6 2,3 7,7 SSØ 9,3 1028,0 98 - -
03:29 2,7 2,4 8,0 Sør 9,3 1028,3 98 - -
03:34 2,7 2,4 6,6 SSØ 9,3 1028,1 98 - -
03:39 2,8 2,3 6,4 SSØ 7,4 1027,9 97 - -
03:44 3,0 2,6 6,8 SSØ 9,3 1027,9 97 - -
03:49 3,1 2,6 6,0 SSØ 7,4 1027,8 97 - -
03:54 3,2 2,7 4,5 SSØ 5,6 1027,7 96 - -
03:59 3,3 2,7 5,6 SSØ 7,4 1027,8 96 - -
04:04 3,4 2,7 4,8 SSØ 7,4 1027,7 95 - -
04:09 3,0 2,1 4,2 SSØ 7,4 1027,7 94 - -
04:14 2,9 2,0 3,2 SSØ 5,6 1027,8 94 - -
04:19 3,1 2,4 3,9 SSØ 5,6 1027,9 95 - -
04:24 3,3 2,4 4,8 SSØ 5,6 1027,9 94 - -
04:29 3,4 2,4 5,6 SSØ 7,4 1027,8 93 - -
04:34 3,6 2,4 4,2 SSØ 5,6 1027,7 92 - -
04:39 3,7 2,6 0,6 SSØ 3,7 1027,7 92 - -
04:44 3,7 2,2 0,3 SSØ 1,9 1027,6 90 - -
04:49 3,7 2,2 4,7 ØSØ 9,3 1027,5 90 - -
04:54 3,7 2,0 5,5 7,4 1027,4 89 - -
04:59 3,9 2,1 4,7 ØSØ 7,4 1027,4 88 - -
05:04 4,1 1,9 5,8 ØSØ 9,3 1027,3 86 - -
05:09 4,1 2,0 5,1 ØSØ 9,3 1027,2 86 - -
05:14 4,1 1,8 5,0 ØSØ 7,4 1027,2 85 - -
05:19 4,2 1,8 7,7 ØSØ 11,9 1027,1 84 - -
05:24 4,3 1,7 12,6 ØSØ 13,5 1027,1 83 - -
05:29 4,5 1,9 8,4 ØSØ 13,0 1027,0 83 - -
05:34 4,6 1,7 8,7 ØSØ 11,9 1026,9 82 - -
05:39 4,6 1,6 12,7 ØSØ 15,3 1026,8 81 - -
05:44 4,7 1,6 8,7 ØSØ 13,0 1026,7 80 - -
05:49 4,7 1,5 10,3 ØSØ 13,0 1026,8 80 - -
05:54 4,8 1,6 7,9 11,9 1026,7 80 - -
05:59 4,8 1,3 7,9 14,8 1026,6 78 - -
06:04 5,1 1,2 10,3 SSØ 13,5 1026,6 76 - -
06:09 5,4 1,2 12,1 16,7 1026,6 74 - -
06:14 5,6 0,9 13,7 18,5 1026,5 72 - -
06:19 5,6 0,8 15,0 20,3 1026,4 71 - -
06:24 5,5 0,4 14,5 18,5 1026,4 70 - -
06:29 5,6 0,4 13,2 16,9 1026,2 69 - -
06:34 5,6 0,3 10,5 SSØ 13,0 1026,4 69 - -
06:39 5,6 0,3 12,7 16,7 1026,4 69 - -
06:44 5,4 0,3 10,6 13,0 1026,3 70 - 5
06:49 5,4 0,6 9,2 ØSØ 11,9 1026,2 71 - 7
06:54 5,4 0,3 12,7 15,3 1026,1 70 - 11
06:59 5,5 0,3 11,4 16,7 1025,9 69 - 14
07:04 5,5 0,3 14,3 15,3 1025,8 69 - 18
07:09 5,6 0,3 10,1 16,7 1025,8 69 - 21
07:14 5,7 0,3 11,1 15,3 1025,7 68 - 23
07:19 5,8 -0,1 11,7 SSØ 14,8 1025,6 66 - 25
07:24 5,9 0,1 15,3 20,4 1025,6 66 - 26
07:29 6,1 -0,2 13,8 20,4 1025,5 64 - 32
07:34 6,3 -0,1 13,4 SSØ 18,5 1025,6 64 - 30
07:39 6,5 -0,5 14,2 SSØ 22,2 1025,5 61 - 39
07:44 6,7 -0,7 13,5 Sør 18,5 1025,6 59 - 35
07:49 6,7 -0,5 16,1 SSØ 22,0 1025,3 60 - 47
07:54 6,8 -0,7 16,1 SSØ 22,2 1025,2 59 - 60
07:59 6,8 -0,9 15,8 SSØ 22,2 1025,0 58 - 74
08:04 6,9 -1,1 20,8 SSØ 25,9 1024,9 57 - 95
08:09 7,2 -1,6 14,5 24,1 1025,0 54 - 97
08:14 7,3 -1,4 20,3 SSØ 29,6 1024,9 54 - 111
08:19 7,4 -1,0 21,2 29,6 1024,9 55 - 88
08:24 7,5 -1,5 17,7 SSØ 25,9 1024,8 53 - 67
08:29 7,5 -1,2 20,1 SSØ 27,8 1024,7 54 - 65
08:34 7,4 -1,5 21,1 29,6 1024,6 53 - 72
08:39 7,4 -0,8 18,0 Sør 20,4 1024,4 56 - 113
08:44 7,6 -0,9 17,5 SSØ 22,2 1024,4 55 - 125
08:49 7,8 -0,9 25,3 SSV 29,6 1024,4 54 - 105
08:54 7,8 -0,9 19,8 35,2 1024,5 54 - 130
08:59 7,9 -0,6 21,7 SSØ 28,8 1024,5 55 - 118
09:04 8,1 -0,7 23,7 Sør 29,6 1024,5 54 - 190
09:09 8,2 -0,1 20,3 Sør 27,0 1024,6 56 - 144
09:14 8,2 -0,1 20,4 SSØ 24,1 1024,5 56 - 132
09:19 8,2 -0,1 21,2 30,4 1024,5 56 - 102
09:24 8,1 -0,2 22,5 27,8 1024,3 56 - 88
09:29 8,1 0,3 22,0 Sør 29,6 1024,3 58 - 90
09:34 8,0 0,2 26,4 SSØ 29,6 1024,2 58 - 84
09:39 8,1 0,3 17,5 SSØ 29,6 1024,3 58 - 107
09:44 8,1 1,1 19,5 SSØ 31,5 1024,2 61 - 137
09:49 8,2 0,9 20,3 Sør 27,8 1024,2 60 - 156
09:54 8,3 1,2 28,0 SSØ 35,6 1024,2 61 - 188
09:59 8,5 1,4 23,0 Sør 35,2 1024,0 61 - 165
10:04 8,4 1,6 31,9 SSØ 38,9 1024,0 62 - 151
10:09 8,5 1,8 23,7 31,5 1023,8 63 - 185
10:14 8,6 2,8 24,0 Sør 37,0 1023,8 67 - 169
10:19 8,6 2,4 29,1 38,9 1023,8 65 - 248
10:24 8,6 2,4 36,7 Sør 46,3 1023,7 65 - 223
10:29 8,6 2,6 32,7 SSØ 40,7 1023,6 66 - 171
10:34 8,4 2,6 34,6 Sør 42,2 1023,8 67 - 107
10:39 8,2 2,8 23,8 SSØ 35,6 1023,8 69 - 109
10:44 8,1 2,8 25,1 33,3 1023,6 69 - 97
10:49 8,1 2,7 30,1 38,9 1023,7 69 - 102
10:54 8,1 3,1 33,6 SSØ 48,9 1023,7 71 - 93
10:59 8,1 3,6 30,7 SSØ 37,0 1023,7 73 - 77
11:04 8,0 3,8 29,8 SSØ 35,6 1023,6 75 - 65
11:09 8,0 4,0 28,3 Sør 38,9 1023,5 76 - 93
11:14 8,0 4,0 30,9 Sør 35,6 1023,4 76 - 130
11:19 8,1 4,3 28,6 Sør 40,5 1023,2 77 - 120
11:24 8,0 4,4 29,3 Sør 37,0 1023,1 78 - 149
11:29 8,0 4,4 38,3 SSØ 52,5 1023,0 78 - 121
11:34 7,9 4,7 23,7 SSØ 32,0 1022,9 80 0,30 111
11:39 7,9 4,8 27,2 SSØ 38,9 1022,9 81 0,30 104
11:44 7,8 4,9 22,0 35,6 1022,8 82 0,30 113
11:49 7,8 5,1 32,2 SSØ 44,4 1022,6 83 0,30 91
11:54 7,8 5,1 21,7 35,2 1022,5 83 0,30 86
11:59 7,8 5,2 31,5 SSØ 37,0 1022,4 84 0,30 97
12:04 7,8 5,2 18,3 27,8 1022,3 84 0,30 84
12:09 7,7 5,1 31,1 ØSØ 38,9 1022,0 84 0,30 146
12:14 7,7 5,1 30,9 SSØ 40,7 1021,9 84 0,30 165
12:19 7,7 5,5 29,0 Sør 40,5 1021,8 86 0,30 158
12:24 7,8 5,7 24,3 SSØ 44,4 1021,9 87 0,30 156
12:29 7,8 5,7 26,9 SSØ 38,9 1021,6 87 0,30 118
12:34 7,7 5,8 31,5 SSØ 35,6 1021,5 88 - 125
12:39 7,7 5,8 37,3 SSØ 46,3 1021,4 88 - 162
12:44 7,7 5,8 26,4 35,6 1021,2 88 - 128
12:49 7,7 5,8 29,3 SSØ 35,6 1021,1 88 - 114
12:54 7,7 5,9 22,8 SSØ 35,2 1021,1 89 - 123
12:59 7,8 6,1 30,1 SSØ 38,9 1021,0 89 - 113
13:04 7,8 6,2 22,4 37,0 1021,0 90 - 125
13:09 7,8 6,3 36,7 Sør 46,3 1020,8 90 - 134
13:14 7,9 6,5 22,5 SSØ 42,6 1020,8 91 - 176
13:19 7,9 6,6 27,0 SSØ 38,9 1020,7 91 - 91
13:24 7,9 6,7 30,7 Sør 40,7 1020,8 92 - 77
13:29 7,9 6,7 22,8 SSØ 37,0 1020,6 92 - 83
13:34 7,9 6,7 33,1 Sør 38,9 1020,5 92 - 74
13:39 7,8 6,6 29,9 35,2 1020,4 92 - 97
13:44 7,9 6,7 35,1 SSØ 46,3 1020,3 92 - 93
13:49 7,9 6,8 32,7 40,7 1020,1 93 - 98
13:54 7,8 6,8 24,8 ØSØ 33,8 1019,9 93 - 86
Daglig sammendrag for Fredag 22 Mars 2019
Tid Temp. ( °C ) Dew pt. ( °C ) Vind ( km/h ) fra Vindkast ( km/h ) Trykk ( hPa ) Humid.( % ) Rainrate ( cm ) Sol ( W/m2 )
Max8,6 6,8 38,3 SSØ ( 1118/2558 ) 52,5 1030,3 99 0,30 248
Snitt5,3 2,0 15,3 SSØ #63/167 20,9 1025,7 81 0,60 103 #87/167
Min-0,2 -1,6 -   0,0 1019,9 53 -  
Daglig Tabular details for Fredag 22 Mars 2019
Tid Temp. ( °C ) Dew pt. ( °C ) Vind ( km/h ) fra Vindkast ( km/h ) Trykk ( hPa ) Humid.( % ) Rainrate ( cm ) Sol ( W/m2 )
00:04 0,3 0,0   Stille   1030,3 98 - -
00:09 1,2 1,0 1,3 VNV 3,7 1030,2 99 - -
00:14 1,4 1,2   Stille   1030,3 99 - -
00:19 1,4 1,3   Stille   1030,3 99 - -
00:24 1,0 0,8 3,9 VNV 5,6 1030,3 99 - -
00:29 1,3 1,2 3,4 VNV 3,7 1029,9 99 - -
00:34 1,6 1,4 4,2 NNØ 5,6 1029,6 99 - -
00:39 -0,2 -0,4 3,7 5,6 1029,6 98 - -
00:44 0,7 0,6 3,7 Øst 5,6 1029,6 99 - -
00:49 1,4 1,2 5,1 ØSØ 9,3 1029,7 99 - -
00:54 1,5 1,3 5,8 ØSØ 7,4 1029,8 99 - -
00:59 1,9 1,7 1,9 ØSØ 3,7 1029,5 99 - -
01:04 1,4 1,2 4,7 ØSØ 5,6 1029,4 99 - -
01:09 1,8 1,6 3,7 ØSØ 5,6 1029,1 99 - -
01:14 1,9 1,8 5,0 ØSØ 8,4 1028,9 99 - -
01:19 1,9 1,7 0,8 ØSØ 1,9 1028,8 99 - -
01:24 1,3 1,1   Stille   1028,7 99 - -
01:29 1,7 1,5   Stille 5,6 1028,7 99 - -
01:34 1,7 1,6 2,9 ØSØ 5,6 1028,7 99 - -
01:39 2,1 1,9 6,0 ØSØ 7,4 1028,7 99 - -
01:44 1,6 1,4 5,1 7,4 1028,5 99 - -
01:49 1,5 1,3 5,8 7,4 1028,3 99 - -
01:54 1,4 1,2 6,8 9,3 1028,3 99 - -
01:59 1,8 1,6 6,9 7,4 1028,1 99 - -
02:04 1,0 0,8 7,7 SSØ 9,3 1028,1 99 - -
02:09 0,8 0,7 8,8 Sør 10,1 1028,2 99 - -
02:14 1,1 0,9 5,6 Sør 8,4 1028,2 99 - -
02:19 1,3 1,1 9,8 SSV 11,1 1028,5 99 - -
02:24 1,2 1,0 7,7 Sør 9,3 1028,3 99 - -
02:29 1,7 1,5 7,1 Sør 8,4 1028,4 99 - -
02:34 1,6 1,4 6,0 Sør 9,3 1028,4 99 - -
02:39 1,4 1,2 6,8 Sør 9,3 1028,5 99 - -
02:44 1,5 1,3 8,2 Sør 9,3 1028,6 99 - -
02:49 1,3 1,1 6,4 Sør 7,4 1028,3 99 - -
02:54 1,5 1,3 7,6 Sør 9,3 1028,3 99 - -
02:59 1,9 1,7 6,4 Sør 9,3 1028,0 99 - -
03:04 2,2 2,1 6,6 SSØ 9,3 1027,9 99 - -
03:09 2,3 2,2 3,1 SSØ 7,4 1027,8 99 - -
03:14 2,5 2,3 5,0 SSØ 9,3 1027,9 99 - -
03:19 2,4 2,2 6,4 SSØ 9,3 1027,9 99 - -
03:24 2,6 2,3 7,7 SSØ 9,3 1028,0 98 - -
03:29 2,7 2,4 8,0 Sør 9,3 1028,3 98 - -
03:34 2,7 2,4 6,6 SSØ 9,3 1028,1 98 - -
03:39 2,8 2,3 6,4 SSØ 7,4 1027,9 97 - -
03:44 3,0 2,6 6,8 SSØ 9,3 1027,9 97 - -
03:49 3,1 2,6 6,0 SSØ 7,4 1027,8 97 - -
03:54 3,2 2,7 4,5 SSØ 5,6 1027,7 96 - -
03:59 3,3 2,7 5,6 SSØ 7,4 1027,8 96 - -
04:04 3,4 2,7 4,8 SSØ 7,4 1027,7 95 - -
04:09 3,0 2,1 4,2 SSØ 7,4 1027,7 94 - -
04:14 2,9 2,0 3,2 SSØ 5,6 1027,8 94 - -
04:19 3,1 2,4 3,9 SSØ 5,6 1027,9 95 - -
04:24 3,3 2,4 4,8 SSØ 5,6 1027,9 94 - -
04:29 3,4 2,4 5,6 SSØ 7,4 1027,8 93 - -
04:34 3,6 2,4 4,2 SSØ 5,6 1027,7 92 - -
04:39 3,7 2,6 0,6 SSØ 3,7 1027,7 92 - -
04:44 3,7 2,2 0,3 SSØ 1,9 1027,6 90 - -
04:49 3,7 2,2 4,7 ØSØ 9,3 1027,5 90 - -
04:54 3,7 2,0 5,5 7,4 1027,4 89 - -
04:59 3,9 2,1 4,7 ØSØ 7,4 1027,4 88 - -
05:04 4,1 1,9 5,8 ØSØ 9,3 1027,3 86 - -
05:09 4,1 2,0 5,1 ØSØ 9,3 1027,2 86 - -
05:14 4,1 1,8 5,0 ØSØ 7,4 1027,2 85 - -
05:19 4,2 1,8 7,7 ØSØ 11,9 1027,1 84 - -
05:24 4,3 1,7 12,6 ØSØ 13,5 1027,1 83 - -
05:29 4,5 1,9 8,4 ØSØ 13,0 1027,0 83 - -
05:34 4,6 1,7 8,7 ØSØ 11,9 1026,9 82 - -
05:39 4,6 1,6 12,7 ØSØ 15,3 1026,8 81 - -
05:44 4,7 1,6 8,7 ØSØ 13,0 1026,7 80 - -
05:49 4,7 1,5 10,3 ØSØ 13,0 1026,8 80 - -
05:54 4,8 1,6 7,9 11,9 1026,7 80 - -
05:59 4,8 1,3 7,9 14,8 1026,6 78 - -
06:04 5,1 1,2 10,3 SSØ 13,5 1026,6 76 - -
06:09 5,4 1,2 12,1 16,7 1026,6 74 - -
06:14 5,6 0,9 13,7 18,5 1026,5 72 - -
06:19 5,6 0,8 15,0 20,3 1026,4 71 - -
06:24 5,5 0,4 14,5 18,5 1026,4 70 - -
06:29 5,6 0,4 13,2 16,9 1026,2 69 - -
06:34 5,6 0,3 10,5 SSØ 13,0 1026,4 69 - -
06:39 5,6 0,3 12,7 16,7 1026,4 69 - -
06:44 5,4 0,3 10,6 13,0 1026,3 70 - 5
06:49 5,4 0,6 9,2 ØSØ 11,9 1026,2 71 - 7
06:54 5,4 0,3 12,7 15,3 1026,1 70 - 11
06:59 5,5 0,3 11,4 16,7 1025,9 69 - 14
07:04 5,5 0,3 14,3 15,3 1025,8 69 - 18
07:09 5,6 0,3 10,1 16,7 1025,8 69 - 21
07:14 5,7 0,3 11,1 15,3 1025,7 68 - 23
07:19 5,8 -0,1 11,7 SSØ 14,8 1025,6 66 - 25
07:24 5,9 0,1 15,3 20,4 1025,6 66 - 26
07:29 6,1 -0,2 13,8 20,4 1025,5 64 - 32
07:34 6,3 -0,1 13,4 SSØ 18,5 1025,6 64 - 30
07:39 6,5 -0,5 14,2 SSØ 22,2 1025,5 61 - 39
07:44 6,7 -0,7 13,5 Sør 18,5 1025,6 59 - 35
07:49 6,7 -0,5 16,1 SSØ 22,0 1025,3 60 - 47
07:54 6,8 -0,7 16,1 SSØ 22,2 1025,2 59 - 60
07:59 6,8 -0,9 15,8 SSØ 22,2 1025,0 58 - 74
08:04 6,9 -1,1 20,8 SSØ 25,9 1024,9 57 - 95
08:09 7,2 -1,6 14,5 24,1 1025,0 54 - 97
08:14 7,3 -1,4 20,3 SSØ 29,6 1024,9 54 - 111
08:19 7,4 -1,0 21,2 29,6 1024,9 55 - 88
08:24 7,5 -1,5 17,7 SSØ 25,9 1024,8 53 - 67
08:29 7,5 -1,2 20,1 SSØ 27,8 1024,7 54 - 65
08:34 7,4 -1,5 21,1 29,6 1024,6 53 - 72
08:39 7,4 -0,8 18,0 Sør 20,4 1024,4 56 - 113
08:44 7,6 -0,9 17,5 SSØ 22,2 1024,4 55 - 125
08:49 7,8 -0,9 25,3 SSV 29,6 1024,4 54 - 105
08:54 7,8 -0,9 19,8 35,2 1024,5 54 - 130
08:59 7,9 -0,6 21,7 SSØ 28,8 1024,5 55 - 118
09:04 8,1 -0,7 23,7 Sør 29,6 1024,5 54 - 190
09:09 8,2 -0,1 20,3 Sør 27,0 1024,6 56 - 144
09:14 8,2 -0,1 20,4 SSØ 24,1 1024,5 56 - 132
09:19 8,2 -0,1 21,2 30,4 1024,5 56 - 102
09:24 8,1 -0,2 22,5 27,8 1024,3 56 - 88
09:29 8,1 0,3 22,0 Sør 29,6 1024,3 58 - 90
09:34 8,0 0,2 26,4 SSØ 29,6 1024,2 58 - 84
09:39 8,1 0,3 17,5 SSØ 29,6 1024,3 58 - 107
09:44 8,1 1,1 19,5 SSØ 31,5 1024,2 61 - 137
09:49 8,2 0,9 20,3 Sør 27,8 1024,2 60 - 156
09:54 8,3 1,2 28,0 SSØ 35,6 1024,2 61 - 188
09:59 8,5 1,4 23,0 Sør 35,2 1024,0 61 - 165
10:04 8,4 1,6 31,9 SSØ 38,9 1024,0 62 - 151
10:09 8,5 1,8 23,7 31,5 1023,8 63 - 185
10:14 8,6 2,8 24,0 Sør 37,0 1023,8 67 - 169
10:19 8,6 2,4 29,1 38,9 1023,8 65 - 248
10:24 8,6 2,4 36,7 Sør 46,3 1023,7 65 - 223
10:29 8,6 2,6 32,7 SSØ 40,7 1023,6 66 - 171
10:34 8,4 2,6 34,6 Sør 42,2 1023,8 67 - 107
10:39 8,2 2,8 23,8 SSØ 35,6 1023,8 69 - 109
10:44 8,1 2,8 25,1 33,3 1023,6 69 - 97
10:49 8,1 2,7 30,1 38,9 1023,7 69 - 102
10:54 8,1 3,1 33,6 SSØ 48,9 1023,7 71 - 93
10:59 8,1 3,6 30,7 SSØ 37,0 1023,7 73 - 77
11:04 8,0 3,8 29,8 SSØ 35,6 1023,6 75 - 65
11:09 8,0 4,0 28,3 Sør 38,9 1023,5 76 - 93
11:14 8,0 4,0 30,9 Sør 35,6 1023,4 76 - 130
11:19 8,1 4,3 28,6 Sør 40,5 1023,2 77 - 120
11:24 8,0 4,4 29,3 Sør 37,0 1023,1 78 - 149
11:29 8,0 4,4 38,3 SSØ 52,5 1023,0 78 - 121
11:34 7,9 4,7 23,7 SSØ 32,0 1022,9 80 0,30 111
11:39 7,9 4,8 27,2 SSØ 38,9 1022,9 81 0,30 104
11:44 7,8 4,9 22,0 35,6 1022,8 82 0,30 113
11:49 7,8 5,1 32,2 SSØ 44,4 1022,6 83 0,30 91
11:54 7,8 5,1 21,7 35,2 1022,5 83 0,30 86
11:59 7,8 5,2 31,5 SSØ 37,0 1022,4 84 0,30 97
12:04 7,8 5,2 18,3 27,8 1022,3 84 0,30 84
12:09 7,7 5,1 31,1 ØSØ 38,9 1022,0 84 0,30 146
12:14 7,7 5,1 30,9 SSØ 40,7 1021,9 84 0,30 165
12:19 7,7 5,5 29,0 Sør 40,5 1021,8 86 0,30 158
12:24 7,8 5,7 24,3 SSØ 44,4 1021,9 87 0,30 156
12:29 7,8 5,7 26,9 SSØ 38,9 1021,6 87 0,30 118
12:34 7,7 5,8 31,5 SSØ 35,6 1021,5 88 - 125
12:39 7,7 5,8 37,3 SSØ 46,3 1021,4 88 - 162
12:44 7,7 5,8 26,4 35,6 1021,2 88 - 128
12:49 7,7 5,8 29,3 SSØ 35,6 1021,1 88 - 114
12:54 7,7 5,9 22,8 SSØ 35,2 1021,1 89 - 123
12:59 7,8 6,1 30,1 SSØ 38,9 1021,0 89 - 113
13:04 7,8 6,2 22,4 37,0 1021,0 90 - 125
13:09 7,8 6,3 36,7 Sør 46,3 1020,8 90 - 134
13:14 7,9 6,5 22,5 SSØ 42,6 1020,8 91 - 176
13:19 7,9 6,6 27,0 SSØ 38,9 1020,7 91 - 91
13:24 7,9 6,7 30,7 Sør 40,7 1020,8 92 - 77
13:29 7,9 6,7 22,8 SSØ 37,0 1020,6 92 - 83
13:34 7,9 6,7 33,1 Sør 38,9 1020,5 92 - 74
13:39 7,8 6,6 29,9 35,2 1020,4 92 - 97
13:44 7,9 6,7 35,1 SSØ 46,3 1020,3 92 - 93
13:49 7,9 6,8 32,7 40,7 1020,1 93 - 98
13:54 7,8 6,8 24,8 ØSØ 33,8 1019,9 93 - 86

Download your copy of this data-set  here

Our weather-data as stored at Weather Underground. Script utviklet av Jim McMurry. Tilrettelagt for malen av Leuven-Template.eu

Du finner vår vær info også på:

UK Metoffice

European Weather Network

WeatherCloud

Weather Underground

Utstyr vi bruker:

Værstsjon
Davis VP2

Værprogram
Weather Display

Davis VP2

Weather Display